Terminal Aerodrome Forecast
Issued by NWS

Home | Current Version | Previous Version | Text Only | Print | Product List | Glossary On
Versions: 1 2 3 4 5 6 7 8 9 10 11 12 13
288
FTUS43 KEAX 231934 AAA
TAFMKC
TAF AMD
KMKC 231934Z 2320/2418 18007KT P6SM SCT040
     FM232300 15006KT P6SM SKC
     FM241500 17010KT P6SM SCT050 BKN200=

USA.gov is the U.S. government's official web portal to all federal, state and local government web resources and services.